Time;durP1;ratioP1;P1;durP2;ratioP2;P2;SDS_P1;SDS_P2;PMS_P1;PMS_P2;Temp;Humidity;BMP_temperature;BMP_pressure;BME280_temperature;BME280_humidity;BME280_pressure;Samples;Min_cycle;Max_cycle;Signal;HPM_P1;HPM_P2
2022/04/07 00:00:00;;;;;;;6.03;3.67;;;10.90;99.90;;;;;;5031486;28;20428;-45
2022/04/07 00:02:26;;;;;;;7.75;4.07;;;10.90;99.90;;;;;;5031370;28;20034;-45
2022/04/07 00:04:51;;;;;;;5.88;4.13;;;10.80;99.90;;;;;;5031158;28;20073;-45
2022/04/07 00:07:17;;;;;;;4.85;4.35;;;10.80;99.90;;;;;;5031040;28;20118;-47
2022/04/07 00:09:42;;;;;;;7.43;4.43;;;10.90;99.90;;;;;;5031304;28;20092;-45
2022/04/07 00:12:08;;;;;;;5.40;4.72;;;10.90;99.90;;;;;;5031435;28;20507;-48
2022/04/07 00:14:34;;;;;;;7.18;4.65;;;10.90;99.90;;;;;;5030966;28;20026;-44
2022/04/07 00:16:59;;;;;;;6.25;3.60;;;10.90;99.90;;;;;;5030872;28;20045;-44
2022/04/07 00:19:25;;;;;;;5.78;4.63;;;10.90;99.90;;;;;;5031401;28;20362;-47
2022/04/07 00:21:50;;;;;;;6.40;3.90;;;10.80;99.90;;;;;;5029760;28;20036;-48
2022/04/07 00:24:16;;;;;;;5.43;4.00;;;10.80;99.90;;;;;;5031123;28;20029;-48
2022/04/07 00:26:42;;;;;;;9.20;3.78;;;10.80;99.90;;;;;;5030941;28;20045;-45
2022/04/07 00:29:07;;;;;;;8.15;3.42;;;10.70;99.90;;;;;;5030862;28;20080;-44
2022/04/07 00:31:39;;;;;;;5.93;3.22;;;10.70;99.90;;;;;;5030958;28;20080;-48
2022/04/07 00:34:06;;;;;;;4.05;3.65;;;10.80;99.90;;;;;;5031196;28;20028;-44
2022/04/07 00:36:32;;;;;;;3.92;3.53;;;10.80;99.90;;;;;;5016049;28;20401;-49
2022/04/07 00:38:57;;;;;;;6.78;3.70;;;10.80;99.90;;;;;;5034617;28;20029;-45
2022/04/07 00:41:23;;;;;;;7.47;3.53;;;10.70;99.90;;;;;;5035327;28;20037;-44
2022/04/07 00:43:52;;;;;;;5.28;3.35;;;10.70;99.90;;;;;;5033035;28;20061;-46
2022/04/07 00:46:18;;;;;;;6.28;4.03;;;10.70;99.90;;;;;;5031239;28;20029;-45
2022/04/07 00:48:44;;;;;;;5.90;3.60;;;10.60;99.90;;;;;;5034634;28;20025;-45
2022/04/07 00:51:09;;;;;;;11.43;4.15;;;10.50;99.90;;;;;;5034853;28;20100;-44
2022/04/07 00:53:35;;;;;;;7.07;3.85;;;10.40;99.90;;;;;;5034264;28;20083;-45
2022/04/07 00:56:01;;;;;;;4.30;3.67;;;10.30;99.90;;;;;;5035162;28;20029;-44
2022/04/07 00:58:29;;;;;;;3.97;3.58;;;10.20;99.90;;;;;;5033899;28;20056;-44
2022/04/07 01:00:56;;;;;;;5.53;4.00;;;10.10;99.90;;;;;;5034502;28;20023;-44
2022/04/07 01:03:22;;;;;;;4.38;3.42;;;10.10;99.90;;;;;;5034356;28;20103;-46
2022/04/07 01:05:49;;;;;;;8.02;4.15;;;10.00;99.90;;;;;;5034340;28;20474;-43
2022/04/07 01:08:15;;;;;;;5.25;3.55;;;10.10;99.90;;;;;;5033915;28;20032;-45
2022/04/07 01:10:42;;;;;;;3.75;3.35;;;10.00;99.90;;;;;;5034172;28;20404;-47
2022/04/07 01:13:08;;;;;;;4.90;3.97;;;10.00;99.90;;;;;;5034082;28;20013;-43
2022/04/07 01:15:52;;;;;;;8.55;3.70;;;10.00;99.90;;;;;;5034290;28;20075;-44
2022/04/07 01:18:18;;;;;;;5.38;3.25;;;10.00;99.90;;;;;;5031366;28;20033;-45
2022/04/07 01:20:44;;;;;;;8.73;3.75;;;10.00;99.90;;;;;;5034079;28;20021;-47
2022/04/07 01:23:09;;;;;;;4.63;3.25;;;9.90;99.90;;;;;;5033724;28;20489;-46
2022/04/07 01:25:37;;;;;;;3.70;2.88;;;10.00;99.90;;;;;;5034123;28;20033;-45
2022/04/07 01:28:02;;;;;;;2.63;2.42;;;10.10;99.90;;;;;;5033659;28;20025;-43
2022/04/07 01:30:28;;;;;;;4.45;2.75;;;10.20;99.90;;;;;;5033892;28;20025;-48
2022/04/07 01:32:58;;;;;;;5.63;2.58;;;10.20;99.90;;;;;;5033588;28;20022;-49
2022/04/07 01:35:25;;;;;;;2.70;2.13;;;10.40;99.90;;;;;;5033967;28;20465;-48
2022/04/07 01:37:52;;;;;;;2.92;2.65;;;10.50;99.90;;;;;;5033623;28;20492;-48
2022/04/07 01:40:23;;;;;;;4.57;2.47;;;10.60;99.90;;;;;;5033846;28;20044;-45
2022/04/07 01:42:52;;;;;;;3.28;2.25;;;10.70;99.90;;;;;;5033607;28;20025;-45
2022/04/07 01:45:18;;;;;;;4.63;2.25;;;10.80;99.90;;;;;;5033258;28;20412;-46
2022/04/07 01:47:45;;;;;;;2.17;2.00;;;10.90;99.90;;;;;;5033041;28;20524;-47
2022/04/07 01:50:11;;;;;;;2.85;2.42;;;10.90;99.90;;;;;;5033743;28;20468;-43
2022/04/07 01:52:39;;;;;;;10.65;2.33;;;11.00;99.90;;;;;;5033837;28;20026;-46
2022/04/07 01:55:06;;;;;;;3.72;2.42;;;11.00;99.90;;;;;;5033219;28;20013;-50
2022/04/07 01:57:32;;;;;;;2.38;1.95;;;11.00;99.90;;;;;;5033211;28;20036;-47
2022/04/07 01:59:58;;;;;;;2.15;1.95;;;11.00;99.90;;;;;;5033125;28;20022;-46
2022/04/07 02:02:24;;;;;;;5.03;2.20;;;11.00;99.90;;;;;;5033249;28;20034;-45
2022/04/07 02:05:03;;;;;;;4.68;2.70;;;11.00;99.90;;;;;;5015214;28;20044;-43
2022/04/07 02:07:32;;;;;;;3.95;2.50;;;11.00;99.90;;;;;;5033016;28;20029;-49
2022/04/07 02:09:58;;;;;;;2.28;2.10;;;11.00;99.90;;;;;;5033034;28;20040;-47
2022/04/07 02:12:26;;;;;;;2.83;2.63;;;11.00;99.90;;;;;;5033033;28;20018;-46
2022/04/07 02:14:51;;;;;;;2.50;2.30;;;10.90;99.90;;;;;;5033121;28;20041;-45
2022/04/07 02:17:20;;;;;;;2.70;2.38;;;10.90;99.90;;;;;;5032818;28;20504;-47
2022/04/07 02:19:50;;;;;;;4.03;2.45;;;10.90;99.90;;;;;;5032694;28;20017;-47
2022/04/07 02:22:16;;;;;;;2.55;2.35;;;10.90;99.90;;;;;;5032968;28;20041;-47
2022/04/07 02:24:41;;;;;;;3.95;2.50;;;10.80;99.90;;;;;;5032572;28;20025;-47
2022/04/07 02:27:08;;;;;;;2.03;1.92;;;10.90;99.90;;;;;;5032381;28;20026;-46
2022/04/07 02:29:37;;;;;;;3.80;2.42;;;10.80;99.90;;;;;;5032701;28;20068;-46
2022/04/07 02:32:03;;;;;;;2.60;1.60;;;10.80;99.90;;;;;;5032864;28;20440;-47
2022/04/07 02:34:29;;;;;;;2.75;2.10;;;10.80;99.90;;;;;;5032472;28;20021;-45
2022/04/07 02:36:54;;;;;;;3.35;1.70;;;10.90;99.90;;;;;;5031286;28;20477;-46
2022/04/07 02:39:20;;;;;;;2.00;1.60;;;10.90;99.90;;;;;;5032713;28;20021;-46
2022/04/07 02:41:45;;;;;;;1.80;1.70;;;10.80;99.90;;;;;;5032673;28;20075;-43
2022/04/07 02:44:11;;;;;;;2.20;1.77;;;10.80;99.90;;;;;;5032047;28;20029;-48
2022/04/07 02:46:37;;;;;;;3.03;1.50;;;10.80;99.90;;;;;;5032153;28;20601;-47
2022/04/07 02:49:04;;;;;;;2.65;1.60;;;10.80;99.90;;;;;;5032029;28;20025;-45
2022/04/07 02:51:31;;;;;;;2.53;1.85;;;10.80;99.90;;;;;;5031079;28;20025;-47
2022/04/07 02:53:59;;;;;;;2.25;1.85;;;10.80;99.90;;;;;;5032007;28;20021;-44
2022/04/07 02:56:26;;;;;;;2.65;1.88;;;10.80;99.90;;;;;;5032130;28;20018;-47
2022/04/07 02:58:51;;;;;;;3.00;1.40;;;10.80;99.90;;;;;;5030100;28;20552;-46
2022/04/07 03:01:18;;;;;;;2.00;1.60;;;10.80;99.90;;;;;;5030668;28;20167;-46
2022/04/07 03:03:44;;;;;;;1.67;1.58;;;10.80;99.90;;;;;;5031279;28;20072;-45
2022/04/07 03:06:09;;;;;;;1.80;1.48;;;10.70;99.90;;;;;;5031776;28;20122;-46
2022/04/07 03:08:35;;;;;;;1.80;1.70;;;10.70;99.90;;;;;;5032023;28;20079;-49
2022/04/07 03:11:01;;;;;;;2.67;1.70;;;10.70;99.90;;;;;;5031927;28;20029;-46
2022/04/07 03:13:27;;;;;;;2.85;1.90;;;10.70;99.90;;;;;;5032021;28;20396;-47
2022/04/07 03:15:53;;;;;;;1.98;1.70;;;10.70;99.90;;;;;;5032065;28;20092;-44
2022/04/07 03:18:19;;;;;;;3.65;1.90;;;10.70;99.90;;;;;;5031703;28;20117;-47
2022/04/07 03:20:44;;;;;;;1.83;1.73;;;10.60;99.90;;;;;;5032209;28;20033;-45
2022/04/07 03:23:10;;;;;;;1.98;1.88;;;10.60;99.90;;;;;;5031715;28;20113;-45
2022/04/07 03:25:36;;;;;;;3.33;2.00;;;10.50;99.90;;;;;;5031841;28;20017;-47
2022/04/07 03:28:03;;;;;;;3.35;1.83;;;10.50;99.90;;;;;;5032016;28;20049;-46
2022/04/07 03:30:28;;;;;;;2.08;1.88;;;10.50;99.90;;;;;;5031570;28;20036;-45
2022/04/07 03:32:54;;;;;;;2.03;1.92;;;10.50;99.90;;;;;;5031775;28;20025;-46
2022/04/07 03:35:20;;;;;;;1.77;1.70;;;10.50;99.90;;;;;;5030280;28;20116;-45
2022/04/07 03:37:45;;;;;;;1.83;1.73;;;10.50;99.90;;;;;;5013738;28;20049;-46
2022/04/07 03:40:12;;;;;;;3.58;1.90;;;10.50;99.90;;;;;;5030373;28;20053;-48
2022/04/07 03:42:37;;;;;;;1.60;1.50;;;10.50;99.90;;;;;;5031575;28;20080;-44
2022/04/07 03:45:03;;;;;;;2.17;1.73;;;10.50;99.90;;;;;;5031285;28;20029;-48
2022/04/07 03:47:30;;;;;;;6.72;1.80;;;10.60;99.90;;;;;;5029508;28;20029;-47
2022/04/07 03:49:56;;;;;;;2.63;1.63;;;10.60;99.90;;;;;;5030019;28;20129;-48
2022/04/07 03:52:21;;;;;;;1.65;1.55;;;10.60;99.90;;;;;;5031681;28;20065;-47
2022/04/07 03:54:47;;;;;;;1.35;1.27;;;10.60;99.90;;;;;;5031122;28;20024;-48
2022/04/07 03:57:12;;;;;;;1.20;1.20;;;10.60;99.90;;;;;;5030810;28;20022;-47
2022/04/07 03:59:39;;;;;;;1.65;1.55;;;10.60;99.90;;;;;;5029754;28;20025;-49
2022/04/07 04:02:06;;;;;;;2.95;1.42;;;10.70;99.90;;;;;;5031177;28;20155;-49
2022/04/07 04:04:32;;;;;;;1.63;1.52;;;10.60;99.90;;;;;;5031058;28;20030;-47
2022/04/07 04:06:57;;;;;;;1.70;1.60;;;10.70;99.90;;;;;;5030983;28;20036;-48
2022/04/07 04:09:23;;;;;;;1.77;1.67;;;10.70;99.90;;;;;;5032386;28;20030;-49
2022/04/07 04:11:48;;;;;;;1.88;1.65;;;10.70;99.90;;;;;;5035205;28;20040;-47
2022/04/07 04:14:14;;;;;;;1.67;1.20;;;10.80;99.90;;;;;;5034938;28;20393;-46
2022/04/07 04:16:41;;;;;;;1.67;1.30;;;10.80;99.90;;;;;;5035091;28;20087;-48
2022/04/07 04:19:07;;;;;;;2.47;1.20;;;10.80;99.90;;;;;;5035077;28;20025;-45
2022/04/07 04:21:33;;;;;;;4.13;1.83;;;10.70;99.90;;;;;;5034894;28;20036;-46
2022/04/07 04:23:58;;;;;;;1.45;1.40;;;10.80;99.90;;;;;;5034783;28;20033;-46
2022/04/07 04:26:24;;;;;;;1.40;1.30;;;10.80;99.90;;;;;;5034908;28;20029;-45
2022/04/07 04:28:49;;;;;;;2.20;1.60;;;10.70;99.90;;;;;;5034683;28;20064;-47
2022/04/07 04:31:15;;;;;;;1.38;1.27;;;10.70;99.90;;;;;;5034705;28;20032;-47
2022/04/07 04:33:40;;;;;;;2.97;2.38;;;10.70;99.90;;;;;;5035001;28;20091;-48
2022/04/07 04:36:06;;;;;;;2.45;1.55;;;10.70;99.90;;;;;;5064454;23;20082;-46
2022/04/07 04:38:32;;;;;;;1.70;1.60;;;10.70;99.90;;;;;;5054077;28;20031;-45
2022/04/07 04:40:57;;;;;;;2.58;1.60;;;10.70;99.90;;;;;;5054716;28;20033;-42
2022/04/07 04:43:23;;;;;;;3.28;1.95;;;10.70;99.90;;;;;;5054551;28;20040;-45
2022/04/07 04:45:48;;;;;;;2.15;1.60;;;10.80;99.90;;;;;;5054186;28;20025;-45
2022/04/07 04:48:14;;;;;;;1.75;1.63;;;10.80;99.90;;;;;;5054426;28;20033;-43
2022/04/07 04:50:39;;;;;;;1.52;1.42;;;10.70;99.90;;;;;;5053012;28;20040;-41
2022/04/07 04:53:05;;;;;;;5.72;1.80;;;10.80;99.90;;;;;;5054579;28;20392;-53
2022/04/07 04:55:31;;;;;;;1.60;1.50;;;10.70;99.90;;;;;;5049411;28;20031;-50
2022/04/07 04:57:56;;;;;;;3.40;1.70;;;10.70;99.90;;;;;;5052497;28;20025;-49
2022/04/07 05:00:22;;;;;;;1.52;1.42;;;10.70;99.90;;;;;;5052072;28;20032;-59
2022/04/07 05:02:47;;;;;;;2.70;1.85;;;10.70;99.90;;;;;;5052175;28;20029;-50
2022/04/07 05:05:12;;;;;;;4.53;2.60;;;10.70;99.90;;;;;;5050558;28;20025;-51
2022/04/07 05:07:38;;;;;;;1.67;1.58;;;10.70;99.90;;;;;;5052460;28;20595;-52
2022/04/07 05:10:05;;;;;;;1.15;1.15;;;10.70;99.90;;;;;;5052047;28;20254;-54
2022/04/07 05:12:31;;;;;;;1.40;1.08;;;10.70;99.90;;;;;;5052424;28;20059;-51
2022/04/07 05:14:57;;;;;;;1.10;1.10;;;10.70;99.90;;;;;;5051872;28;20029;-59
2022/04/07 05:17:23;;;;;;;0.93;0.93;;;10.70;99.90;;;;;;5050368;28;20086;-61
2022/04/07 05:19:49;;;;;;;2.05;1.35;;;10.70;99.90;;;;;;5054084;28;20017;-59
2022/04/07 05:22:14;;;;;;;1.10;1.10;;;10.70;99.90;;;;;;5052958;28;20083;-59
2022/04/07 05:24:40;;;;;;;1.42;0.88;;;10.70;99.90;;;;;;5054695;28;20033;-58
2022/04/07 05:27:06;;;;;;;2.10;0.90;;;10.70;99.90;;;;;;5052006;28;20112;-61
2022/04/07 05:29:31;;;;;;;0.95;0.95;;;10.70;99.90;;;;;;5052546;28;20541;-54
2022/04/07 05:31:57;;;;;;;1.23;1.05;;;10.70;99.90;;;;;;5052335;28;20033;-49
2022/04/07 05:34:22;;;;;;;1.45;0.90;;;10.80;99.90;;;;;;5051551;28;20025;-47
2022/04/07 05:36:48;;;;;;;0.60;0.60;;;10.80;99.90;;;;;;5045953;28;20507;-59
2022/04/07 05:39:13;;;;;;;1.08;0.80;;;10.80;99.90;;;;;;5051568;28;20110;-57
2022/04/07 05:41:39;;;;;;;2.17;1.05;;;10.80;99.90;;;;;;5050477;28;20025;-55
2022/04/07 05:44:05;;;;;;;0.60;0.60;;;10.80;99.90;;;;;;5051572;28;20039;-55
2022/04/07 05:46:31;;;;;;;1.27;0.80;;;10.90;99.90;;;;;;5049916;28;20399;-51
2022/04/07 05:48:56;;;;;;;1.10;0.68;;;10.90;99.90;;;;;;5051666;28;20036;-58
2022/04/07 05:51:22;;;;;;;0.45;0.45;;;10.90;99.90;;;;;;5050929;28;20045;-58
2022/04/07 05:53:48;;;;;;;0.73;0.50;;;10.90;99.90;;;;;;5050724;28;20021;-60
2022/04/07 05:56:13;;;;;;;0.70;0.70;;;10.90;99.90;;;;;;5049756;28;20061;-44
2022/04/07 05:58:39;;;;;;;0.60;0.60;;;10.80;99.90;;;;;;5051152;28;20063;-55
2022/04/07 06:01:04;;;;;;;0.80;0.80;;;10.80;99.90;;;;;;5049764;28;20108;-60
2022/04/07 06:03:31;;;;;;;4.88;1.98;;;10.70;99.90;;;;;;5051480;28;20473;-52
2022/04/07 06:05:57;;;;;;;1.10;1.10;;;10.60;99.90;;;;;;5048951;28;20107;-51
2022/04/07 06:08:23;;;;;;;0.68;0.68;;;10.70;99.90;;;;;;5050621;28;20029;-52
2022/04/07 06:10:48;;;;;;;1.58;1.00;;;10.60;99.90;;;;;;5051277;28;20036;-56
2022/04/07 06:13:17;;;;;;;0.70;0.70;;;10.60;99.90;;;;;;5051049;28;20527;-49
2022/04/07 06:15:43;;;;;;;1.27;1.15;;;10.70;99.90;;;;;;5049228;28;20024;-47
2022/04/07 06:18:09;;;;;;;3.95;0.93;;;10.60;99.90;;;;;;5050502;28;20066;-44
2022/04/07 06:20:34;;;;;;;9.50;0.80;;;10.70;99.90;;;;;;5051112;28;20056;-45
2022/04/07 06:23:00;;;;;;;1.73;1.10;;;10.70;99.90;;;;;;5051806;28;20052;-59
2022/04/07 06:25:26;;;;;;;1.30;0.95;;;10.70;99.90;;;;;;5031134;28;20087;-50
2022/04/07 06:27:52;;;;;;;1.48;1.05;;;10.80;99.90;;;;;;5049214;28;20059;-40
2022/04/07 06:30:20;;;;;;;1.33;1.20;;;10.80;99.90;;;;;;5051777;28;20064;-46
2022/04/07 06:32:46;;;;;;;2.80;0.75;;;10.80;99.90;;;;;;5034384;28;20052;-44
2022/04/07 06:35:13;;;;;;;1.13;1.10;;;10.80;99.90;;;;;;5052137;28;20091;-47
2022/04/07 06:37:57;;;;;;;1.60;0.93;;;10.90;99.90;;;;;;5052438;28;20428;-47
2022/04/07 06:40:27;;;;;;;1.48;0.95;;;10.90;99.90;;;;;;5031414;28;20026;-47
2022/04/07 06:42:55;;;;;;;1.10;0.70;;;11.00;99.90;;;;;;5032688;28;20079;-42
2022/04/07 06:45:21;;;;;;;0.55;0.55;;;11.00;99.90;;;;;;5032752;28;20394;-50
2022/04/07 06:47:47;;;;;;;0.50;0.50;;;11.00;99.90;;;;;;5044390;28;20032;-46
2022/04/07 06:50:14;;;;;;;3.20;0.60;;;11.10;99.90;;;;;;5033576;28;20032;-44
2022/04/07 06:52:41;;;;;;;4.45;1.08;;;11.10;99.90;;;;;;5052164;28;20316;-49
2022/04/07 06:55:07;;;;;;;1.08;0.60;;;11.00;99.90;;;;;;5052856;28;20458;-57
2022/04/07 06:57:57;;;;;;;5.03;0.57;;;11.00;99.90;;;;;;5055951;28;20017;-58
2022/04/07 07:00:25;;;;;;;1.42;0.60;;;11.00;99.90;;;;;;5055326;28;20531;-46
2022/04/07 07:02:52;;;;;;;1.00;0.65;;;11.00;99.90;;;;;;5036657;28;20044;-51
2022/04/07 07:05:19;;;;;;;0.50;0.50;;;11.00;99.90;;;;;;5053650;28;20103;-52
2022/04/07 07:07:44;;;;;;;0.95;0.63;;;11.00;99.90;;;;;;5051755;28;20029;-43
2022/04/07 07:10:10;;;;;;;0.85;0.60;;;11.00;99.90;;;;;;5052020;28;20429;-49
2022/04/07 07:12:36;;;;;;;1.42;0.60;;;11.00;99.90;;;;;;5051971;28;20029;-49
2022/04/07 07:15:03;;;;;;;1.67;0.57;;;11.00;99.90;;;;;;5051776;28;20024;-48
2022/04/07 07:17:33;;;;;;;1.02;0.60;;;11.00;99.90;;;;;;5051712;28;20105;-43
2022/04/07 07:20:03;;;;;;;2.17;0.60;;;11.00;99.90;;;;;;5052055;28;20052;-53
2022/04/07 07:22:28;;;;;;;1.02;0.65;;;11.00;99.90;;;;;;5051933;28;20415;-51
2022/04/07 07:24:54;;;;;;;0.60;0.60;;;11.10;99.90;;;;;;5051909;28;20104;-48
2022/04/07 07:27:20;;;;;;;1.15;0.63;;;11.10;99.90;;;;;;5051402;28;20025;-46
2022/04/07 07:29:45;;;;;;;7.88;3.40;;;11.10;99.90;;;;;;5052677;28;20079;-39
2022/04/07 07:32:11;;;;;;;2.63;1.02;;;11.00;99.90;;;;;;5051554;28;20017;-46
2022/04/07 07:34:36;;;;;;;2.33;0.70;;;11.00;99.90;;;;;;5051727;28;20025;-44
2022/04/07 07:37:02;;;;;;;0.70;0.70;;;11.00;99.90;;;;;;5051128;28;20432;-44
2022/04/07 07:39:27;;;;;;;0.95;0.80;;;11.00;99.90;;;;;;5051699;28;20025;-45
2022/04/07 07:41:53;;;;;;;2.30;0.90;;;10.90;99.90;;;;;;5051530;28;20032;-40
2022/04/07 07:44:18;;;;;;;1.25;0.73;;;10.90;99.90;;;;;;5051275;28;20029;-44
2022/04/07 07:46:44;;;;;;;2.28;0.52;;;10.90;99.90;;;;;;5032849;28;20035;-44
2022/04/07 07:49:09;;;;;;;1.35;0.60;;;10.90;99.90;;;;;;5051600;28;20159;-45
2022/04/07 07:51:37;;;;;;;1.23;0.90;;;10.80;99.90;;;;;;5051349;28;20044;-44
2022/04/07 07:54:03;;;;;;;1.25;1.00;;;10.80;99.90;;;;;;5051433;28;20071;-45
2022/04/07 07:56:29;;;;;;;7.80;1.45;;;10.90;99.90;;;;;;5051485;28;20029;-43
2022/04/07 07:58:54;;;;;;;0.63;0.60;;;10.80;99.90;;;;;;5050241;28;20435;-44
2022/04/07 08:01:20;;;;;;;0.75;0.75;;;10.80;99.90;;;;;;5051223;28;20036;-52
2022/04/07 08:03:45;;;;;;;1.05;0.60;;;10.90;99.90;;;;;;5051172;28;20021;-40
2022/04/07 08:06:11;;;;;;;1.45;0.60;;;10.90;99.90;;;;;;5050961;28;20464;-44
2022/04/07 08:08:36;;;;;;;0.60;0.60;;;10.90;99.90;;;;;;5051692;28;20025;-40
2022/04/07 08:11:02;;;;;;;1.02;0.70;;;10.90;99.90;;;;;;5050968;28;20408;-43
2022/04/07 08:13:27;;;;;;;1.50;0.77;;;10.90;99.90;;;;;;5050237;28;20021;-44
2022/04/07 08:15:53;;;;;;;0.70;0.50;;;10.90;99.90;;;;;;5051160;28;20017;-48
2022/04/07 08:18:18;;;;;;;2.92;0.80;;;10.80;99.90;;;;;;5050536;28;20032;-46
2022/04/07 08:20:44;;;;;;;2.30;0.90;;;10.80;99.90;;;;;;5051176;28;20091;-40
2022/04/07 08:23:09;;;;;;;0.63;0.63;;;10.80;99.90;;;;;;5051033;28;20025;-45
2022/04/07 08:25:35;;;;;;;1.63;0.90;;;10.80;99.90;;;;;;5050763;28;20515;-46
2022/04/07 08:28:01;;;;;;;3.45;1.00;;;10.90;99.90;;;;;;5049929;28;20040;-46
2022/04/07 08:30:26;;;;;;;1.58;1.13;;;10.90;99.90;;;;;;5050957;28;20056;-45
2022/04/07 08:32:52;;;;;;;0.60;0.60;;;10.90;99.90;;;;;;5050606;28;20156;-39
2022/04/07 08:35:17;;;;;;;2.78;0.70;;;10.90;99.90;;;;;;5050848;28;20036;-47
2022/04/07 08:37:43;;;;;;;0.75;0.75;;;10.90;99.90;;;;;;5050662;28;20092;-42
2022/04/07 08:40:08;;;;;;;1.13;0.63;;;10.90;99.90;;;;;;5050705;28;20487;-47
2022/04/07 08:42:36;;;;;;;4.47;0.70;;;11.00;99.90;;;;;;5050980;28;20033;-46
2022/04/07 08:45:02;;;;;;;1.67;0.75;;;11.00;99.90;;;;;;5050577;28;20056;-45
2022/04/07 08:47:28;;;;;;;4.32;3.17;;;11.00;99.90;;;;;;5050719;28;20033;-46
2022/04/07 08:49:55;;;;;;;3.50;2.47;;;11.00;99.90;;;;;;5050471;28;20029;-45
2022/04/07 08:52:21;;;;;;;4.13;0.80;;;11.00;99.90;;;;;;5050762;28;20033;-43
2022/04/07 08:54:47;;;;;;;2.70;0.65;;;10.90;99.90;;;;;;5050729;28;20021;-45
2022/04/07 08:57:14;;;;;;;2.05;0.68;;;10.90;99.90;;;;;;5052655;28;20538;-43
2022/04/07 08:59:40;;;;;;;6.90;1.15;;;10.90;99.90;;;;;;5054525;28;20049;-47
2022/04/07 09:02:09;;;;;;;2.30;0.90;;;10.90;99.90;;;;;;5053097;28;20064;-48
2022/04/07 09:04:40;;;;;;;4.47;0.80;;;10.90;99.90;;;;;;5052579;28;20377;-48
2022/04/07 09:07:06;;;;;;;0.82;0.80;;;10.90;99.90;;;;;;5056878;28;20029;-47
2022/04/07 09:09:33;;;;;;;2.75;0.70;;;11.00;99.90;;;;;;5043217;28;20021;-44
2022/04/07 09:12:02;;;;;;;1.40;0.60;;;11.10;99.90;;;;;;5053816;28;20491;-45
2022/04/07 09:14:33;;;;;;;1.10;0.80;;;11.10;99.90;;;;;;5053042;28;20025;-41
2022/04/07 09:16:59;;;;;;;5.53;0.63;;;11.10;99.90;;;;;;5053560;28;20100;-38
2022/04/07 09:19:25;;;;;;;3.15;0.57;;;11.10;99.90;;;;;;5053371;28;20463;-43
2022/04/07 09:22:08;;;;;;;2.45;1.17;;;11.10;99.90;;;;;;5036153;28;20028;-44
2022/04/07 09:24:35;;;;;;;0.73;0.70;;;11.20;99.90;;;;;;5054211;28;20025;-46
2022/04/07 09:27:04;;;;;;;1.80;1.05;;;11.30;99.90;;;;;;5053837;28;20021;-48
2022/04/07 09:29:41;;;;;;;1.42;0.90;;;11.30;99.90;;;;;;5053569;28;20158;-45
2022/04/07 09:32:20;;;;;;;1.05;0.65;;;11.40;99.90;;;;;;5053884;28;20427;-46
2022/04/07 09:34:56;;;;;;;2.05;0.52;;;11.40;99.90;;;;;;5051073;28;20044;-45
2022/04/07 09:37:23;;;;;;;0.45;0.45;;;11.40;99.90;;;;;;5051575;28;20040;-44
2022/04/07 09:40:01;;;;;;;0.47;0.47;;;11.40;99.90;;;;;;5048248;28;20108;-44
2022/04/07 09:42:26;;;;;;;0.90;0.80;;;11.40;99.90;;;;;;5053294;28;20013;-45
2022/04/07 09:44:59;;;;;;;0.50;0.50;;;11.40;99.90;;;;;;5053621;28;20442;-43
2022/04/07 09:47:34;;;;;;;0.70;0.70;;;11.40;99.90;;;;;;5052990;28;20393;-45
2022/04/07 09:50:00;;;;;;;2.78;1.38;;;11.40;99.90;;;;;;5053747;28;20116;-47
2022/04/07 09:52:26;;;;;;;4.65;0.93;;;11.50;99.90;;;;;;5053019;28;20104;-48
2022/04/07 09:54:52;;;;;;;5.47;0.80;;;11.50;99.90;;;;;;5053228;28;20166;-44
2022/04/07 09:57:21;;;;;;;0.60;0.60;;;11.50;99.90;;;;;;5052740;28;20393;-50
2022/04/07 09:59:48;;;;;;;0.50;0.50;;;11.50;99.90;;;;;;5053192;28;20025;-46
2022/04/07 10:02:16;;;;;;;2.25;0.60;;;11.50;99.90;;;;;;5053336;28;20534;-51
2022/04/07 10:04:42;;;;;;;0.95;0.40;;;11.60;99.90;;;;;;5052617;28;20025;-46
2022/04/07 10:07:11;;;;;;;0.60;0.60;;;11.70;99.90;;;;;;5052769;28;20113;-46
2022/04/07 10:09:39;;;;;;;1.48;0.40;;;11.80;99.90;;;;;;5053141;28;20048;-43
2022/04/07 10:12:05;;;;;;;1.27;0.43;;;12.00;99.90;;;;;;5053328;28;20024;-43
2022/04/07 10:14:34;;;;;;;1.90;0.50;;;12.20;99.90;;;;;;5052043;28;20108;-44
2022/04/07 10:16:59;;;;;;;0.22;0.20;;;12.30;99.90;;;;;;5052629;28;20473;-43
2022/04/07 10:19:32;;;;;;;3.40;0.50;;;12.40;99.90;;;;;;5052759;28;20032;-50
2022/04/07 10:22:15;;;;;;;2.47;0.30;;;12.60;99.90;;;;;;5052840;28;20029;-43
2022/04/07 10:24:48;;;;;;;1.95;0.40;;;12.70;99.90;;;;;;5034514;28;20089;-50
2022/04/07 10:27:18;;;;;;;1.55;0.35;;;12.80;99.90;;;;;;5034304;28;20068;-43
2022/04/07 10:30:09;;;;;;;1.00;0.30;;;12.90;99.90;;;;;;5053078;28;20020;-44
2022/04/07 10:32:42;;;;;;;0.55;0.30;;;12.90;99.90;;;;;;5052794;28;20450;-44
2022/04/07 10:35:28;;;;;;;1.40;0.43;;;12.90;99.90;;;;;;5052673;28;21846;-43
2022/04/07 10:37:54;;;;;;;2.67;0.73;;;13.00;99.90;;;;;;5076117;23;20021;-48
2022/04/07 10:40:48;;;;;;;2.17;0.30;;;13.00;99.90;;;;;;5050678;28;20052;-51
2022/04/07 10:43:14;;;;;;;0.20;0.20;;;13.00;99.90;;;;;;5059662;28;20029;-49
2022/04/07 10:45:42;;;;;;;11.35;6.15;;;13.00;99.90;;;;;;5051820;28;20044;-46
2022/04/07 10:48:31;;;;;;;54.00;32.42;;;13.00;99.90;;;;;;5052293;28;20024;-49
2022/04/07 10:50:59;;;;;;;0.40;0.40;;;13.10;99.90;;;;;;5052722;28;20492;-48
2022/04/07 10:53:29;;;;;;;0.35;0.20;;;13.20;99.90;;;;;;5052263;28;20024;-47
2022/04/07 10:56:00;;;;;;;0.30;0.20;;;13.20;99.90;;;;;;5051938;28;20025;-47
2022/04/07 10:58:46;;;;;;;2.10;0.20;;;13.30;99.90;;;;;;5051914;28;20025;-49
2022/04/07 11:01:32;;;;;;;0.22;0.22;;;13.30;99.90;;;;;;5051788;28;20023;-51
2022/04/07 11:04:16;;;;;;;2.30;0.60;;;13.30;99.90;;;;;;5052058;28;20058;-53
2022/04/07 11:07:02;;;;;;;0.20;0.20;;;13.30;99.90;;;;;;5051600;28;20074;-48
2022/04/07 11:09:48;;;;;;;2.53;0.30;;;13.30;99.90;;;;;;5051538;28;20112;-51
2022/04/07 11:12:29;;;;;;;3.40;0.40;;;13.30;99.90;;;;;;5050788;28;20036;-49
2022/04/07 11:15:04;;;;;;;0.20;0.20;;;13.40;99.90;;;;;;5032006;28;20045;-47
2022/04/07 11:17:34;;;;;;;1.08;0.20;;;13.60;99.90;;;;;;5042681;28;20025;-47
2022/04/07 11:20:18;;;;;;;0.63;0.20;;;13.60;99.90;;;;;;5050861;28;20044;-47
2022/04/07 11:22:54;;;;;;;0.20;0.20;;;13.60;99.90;;;;;;5051930;28;20083;-49
2022/04/07 11:25:21;;;;;;;0.20;0.20;;;13.60;99.90;;;;;;5051092;28;20492;-47
2022/04/07 11:28:01;;;;;;;0.10;0.10;;;13.60;99.90;;;;;;5051393;28;20548;-49
2022/04/07 11:30:49;;;;;;;2.38;0.30;;;13.70;99.90;;;;;;5042659;28;20029;-47
2022/04/07 11:33:20;;;;;;;0.32;0.30;;;13.70;99.90;;;;;;5053387;28;20025;-47
2022/04/07 11:36:11;;;;;;;0.20;0.20;;;13.70;99.90;;;;;;5051050;28;20045;-48
2022/04/07 11:38:37;;;;;;;0.20;0.20;;;13.70;99.90;;;;;;5050557;28;20033;-50
2022/04/07 11:41:07;;;;;;;0.85;0.85;;;13.80;99.90;;;;;;5051246;28;20024;-46
2022/04/07 11:43:36;;;;;;;0.20;0.20;;;13.80;99.90;;;;;;5051170;28;20107;-48
2022/04/07 11:46:02;;;;;;;0.20;0.20;;;13.80;99.90;;;;;;5033120;28;20037;-45
2022/04/07 11:48:35;;;;;;;0.10;0.10;;;13.80;99.90;;;;;;5051136;28;20032;-48
2022/04/07 11:51:12;;;;;;;0.63;0.38;;;13.80;99.90;;;;;;5051026;28;20147;-46
2022/04/07 11:53:40;;;;;;;2.70;0.47;;;13.90;99.90;;;;;;5051063;28;20135;-47
2022/04/07 11:56:17;;;;;;;1.23;0.30;;;14.00;99.90;;;;;;5051179;28;20021;-51
2022/04/07 11:58:48;;;;;;;5.15;0.70;;;14.10;99.90;;;;;;5050603;28;20028;-50
2022/04/07 12:01:14;;;;;;;0.85;0.40;;;14.10;99.90;;;;;;5033396;28;20025;-46
2022/04/07 12:03:39;;;;;;;1.27;0.30;;;14.30;99.90;;;;;;5051017;28;20036;-49
2022/04/07 12:06:05;;;;;;;0.30;0.30;;;14.40;99.90;;;;;;5051178;28;20104;-48
2022/04/07 12:08:31;;;;;;;3.50;0.28;;;14.40;99.90;;;;;;5050821;28;20028;-45
2022/04/07 12:10:57;;;;;;;0.20;0.20;;;14.50;99.90;;;;;;5051191;28;20021;-47
2022/04/07 12:13:23;;;;;;;5.57;1.73;;;14.50;99.90;;;;;;5051409;28;20108;-49
2022/04/07 12:15:48;;;;;;;0.32;0.30;;;14.60;99.90;;;;;;5053200;28;20112;-45
2022/04/07 12:18:23;;;;;;;2.17;0.77;;;14.70;99.90;;;;;;5050430;28;20046;-45
2022/04/07 12:20:58;;;;;;;0.65;0.40;;;14.70;99.90;;;;;;5051284;28;20024;-50
2022/04/07 12:23:26;;;;;;;0.20;0.20;;;14.70;99.90;;;;;;5057503;28;20352;-52
2022/04/07 12:26:01;;;;;;;0.20;0.20;;;14.60;99.90;;;;;;5070841;28;20036;-48
2022/04/07 12:28:38;;;;;;;0.40;0.20;;;14.60;99.90;;;;;;5070685;28;20052;-50
2022/04/07 12:31:11;;;;;;;1.65;0.35;;;14.70;99.90;;;;;;5071599;28;20372;-47
2022/04/07 12:33:45;;;;;;;0.43;0.20;;;14.70;99.90;;;;;;5074958;28;20046;-48
2022/04/07 12:36:13;;;;;;;0.75;0.20;;;14.70;99.90;;;;;;5038529;28;20500;-46
2022/04/07 12:38:40;;;;;;;8.27;0.63;;;14.70;99.90;;;;;;5054070;28;20025;-49
2022/04/07 12:41:11;;;;;;;2.47;0.80;;;14.80;99.90;;;;;;5054622;28;20377;-46
2022/04/07 12:43:50;;;;;;;1.35;0.40;;;14.90;99.90;;;;;;5036571;28;20426;-46
2022/04/07 12:46:18;;;;;;;17.65;11.65;;;15.10;99.90;;;;;;5054419;28;20099;-48
2022/04/07 12:49:05;;;;;;;8.85;3.85;;;15.10;99.90;;;;;;5054166;28;20490;-45